Time;durP1;ratioP1;P1;durP2;ratioP2;P2;SDS_P1;SDS_P2;PMS_P1;PMS_P2;Temp;Humidity;BMP_temperature;BMP_pressure;BME280_temperature;BME280_humidity;BME280_pressure;Samples;Min_cycle;Max_cycle;Signal;HPM_P1;HPM_P2
2021/12/15 00:02:30;;;;;;;9.90;8.90;;;22.40;76.20;;;;;;6207350;28;89033;-60
2021/12/15 00:05:32;;;;;;;9.93;8.93;;;22.40;76.20;;;;;;6197374;28;90081;-60
2021/12/15 00:08:34;;;;;;;9.50;8.60;;;22.40;76.20;;;;;;6202398;28;89113;-61
2021/12/15 00:11:38;;;;;;;10.18;9.07;;;22.40;76.20;;;;;;6207492;28;89365;-61
2021/12/15 00:14:42;;;;;;;9.85;8.85;;;22.40;76.20;;;;;;6207547;28;87979;-60
2021/12/15 00:17:44;;;;;;;10.07;9.07;;;22.40;76.20;;;;;;6206719;28;88367;-61
2021/12/15 00:20:46;;;;;;;10.38;9.27;;;22.40;76.10;;;;;;6206505;28;88923;-61
2021/12/15 00:23:49;;;;;;;10.57;9.48;;;22.40;76.10;;;;;;6206029;28;89101;-61
2021/12/15 00:26:53;;;;;;;10.77;9.68;;;22.30;76.10;;;;;;6205998;28;90369;-61
2021/12/15 00:29:55;;;;;;;10.23;9.23;;;22.40;76.10;;;;;;6207676;28;89100;-61
2021/12/15 00:32:57;;;;;;;10.52;9.52;;;22.30;76.20;;;;;;6207060;28;88010;-61
2021/12/15 00:35:59;;;;;;;10.90;9.80;;;22.30;76.10;;;;;;6205477;28;89157;-60
2021/12/15 00:39:01;;;;;;;10.27;9.27;;;22.30;76.10;;;;;;6207208;28;89061;-61
2021/12/15 00:42:05;;;;;;;11.60;10.40;;;22.20;76.10;;;;;;6205806;28;88351;-61
2021/12/15 00:45:09;;;;;;;10.95;9.85;;;22.30;76.10;;;;;;6206786;28;89085;-61
2021/12/15 00:48:11;;;;;;;11.07;9.98;;;22.30;76.30;;;;;;6204547;28;87169;-61
2021/12/15 00:51:13;;;;;;;11.25;10.15;;;22.30;76.20;;;;;;6202240;28;89139;-61
2021/12/15 00:54:16;;;;;;;11.63;10.43;;;22.20;76.20;;;;;;6197132;28;89435;-60
2021/12/15 00:57:19;;;;;;;11.95;10.73;;;22.20;76.10;;;;;;6205171;28;90196;-60
2021/12/15 01:00:25;;;;;;;11.85;10.65;;;22.20;76.20;;;;;;6194535;28;89062;-61
2021/12/15 01:03:29;;;;;;;11.75;10.55;;;22.20;76.20;;;;;;6202923;28;87949;-60
2021/12/15 01:06:31;;;;;;;11.35;10.25;;;22.20;76.20;;;;;;6201809;28;88120;-60
2021/12/15 01:09:40;;;;;;;12.55;11.25;;;22.20;76.20;;;;;;6195684;28;89365;-60
2021/12/15 01:14:27;;;;;;;12.25;10.95;;;22.20;76.20;;;;;;6204152;28;89144;-61
2021/12/15 01:22:49;;;;;;;13.05;11.70;;;22.20;76.20;;;;;;6187699;28;87441;-61
2021/12/15 01:25:55;;;;;;;12.52;11.30;;;22.10;76.10;;;;;;6183685;28;89071;-61
2021/12/15 01:28:58;;;;;;;12.60;11.40;;;22.20;76.20;;;;;;6203843;28;90321;-60
2021/12/15 01:32:01;;;;;;;12.38;11.18;;;22.10;76.10;;;;;;6203335;28;87961;-61
2021/12/15 01:35:04;;;;;;;12.65;11.35;;;22.20;76.20;;;;;;6196450;28;89128;-61
2021/12/15 01:38:07;;;;;;;12.68;11.27;;;22.10;76.10;;;;;;6191129;28;89063;-61
2021/12/15 01:41:18;;;;;;;12.73;11.52;;;22.20;76.20;;;;;;6206645;28;89162;-61
2021/12/15 01:47:47;;;;;;;12.38;11.18;;;22.10;76.10;;;;;;6142148;28;87747;-61
2021/12/15 01:50:50;;;;;;;13.05;11.73;;;22.10;76.10;;;;;;6205572;28;88398;-61
2021/12/15 01:53:52;;;;;;;13.20;11.80;;;22.10;76.10;;;;;;6206465;28;88399;-61
2021/12/15 01:56:55;;;;;;;12.75;11.48;;;22.10;76.10;;;;;;6186939;28;89045;-60
2021/12/15 01:59:59;;;;;;;13.07;11.70;;;22.10;76.10;;;;;;6205926;28;90004;-61
2021/12/15 02:03:01;;;;;;;13.18;11.90;;;22.10;76.10;;;;;;6210580;28;89067;-61
2021/12/15 02:06:05;;;;;;;12.85;11.55;;;22.10;76.10;;;;;;6208535;28;89008;-60
2021/12/15 02:09:07;;;;;;;12.55;11.25;;;22.10;76.20;;;;;;6210432;28;88947;-61
2021/12/15 02:12:11;;;;;;;12.63;11.38;;;22.00;76.20;;;;;;6209589;28;89112;-61
2021/12/15 02:15:18;;;;;;;12.57;11.27;;;22.00;76.10;;;;;;6198807;28;89167;-60
2021/12/15 02:18:22;;;;;;;12.75;11.45;;;22.00;76.20;;;;;;6196204;28;89232;-60
2021/12/15 02:21:26;;;;;;;12.52;11.23;;;22.00;77.10;;;;;;6199595;28;88457;-60
2021/12/15 02:24:28;;;;;;;12.23;10.93;;;22.00;76.20;;;;;;6208687;28;89129;-61
2021/12/15 02:27:34;;;;;;;12.73;11.43;;;22.00;76.20;;;;;;6208970;28;89099;-60
2021/12/15 02:30:50;;;;;;;12.93;11.60;;;22.00;76.20;;;;;;6206927;28;89983;-60
2021/12/15 02:34:03;;;;;;;11.43;10.30;;;22.00;76.20;;;;;;6206994;28;90592;-60
2021/12/15 02:37:17;;;;;;;11.85;10.65;;;22.00;76.20;;;;;;6206047;28;88935;-61
2021/12/15 02:40:20;;;;;;;11.88;10.70;;;22.00;76.20;;;;;;6208074;28;89049;-61
2021/12/15 02:43:22;;;;;;;11.27;10.18;;;22.00;76.10;;;;;;6207332;28;88056;-60
2021/12/15 02:46:24;;;;;;;11.77;10.57;;;22.00;76.10;;;;;;6207735;28;88061;-61
2021/12/15 02:49:28;;;;;;;11.70;10.48;;;22.00;76.10;;;;;;6193855;28;89086;-60
2021/12/15 02:52:32;;;;;;;11.82;10.63;;;22.00;76.10;;;;;;6198433;28;88527;-61
2021/12/15 02:55:37;;;;;;;11.77;10.57;;;22.00;76.00;;;;;;6207513;28;88955;-60
2021/12/15 02:58:48;;;;;;;11.23;10.05;;;22.00;75.90;;;;;;6207378;28;89371;-60
2021/12/15 03:02:00;;;;;;;12.00;10.80;;;22.00;76.00;;;;;;6206642;28;90089;-60
2021/12/15 03:05:08;;;;;;;11.38;10.27;;;21.90;76.00;;;;;;6204241;28;89021;-61
2021/12/15 03:08:16;;;;;;;10.93;9.82;;;21.90;75.90;;;;;;6201245;28;89046;-61
2021/12/15 03:17:59;;;;;;;11.15;9.98;;;21.90;75.90;;;;;;6178071;28;89280;-61
2021/12/15 03:21:05;;;;;;;10.32;9.32;;;21.90;75.90;;;;;;6199343;28;89171;-61
2021/12/15 03:24:14;;;;;;;10.40;9.40;;;21.90;75.90;;;;;;6208789;28;88348;-60
2021/12/15 03:27:20;;;;;;;10.77;9.73;;;21.90;76.00;;;;;;6206919;28;89226;-60
2021/12/15 03:34:08;;;;;;;10.73;9.63;;;21.90;76.10;;;;;;6208180;28;88127;-61
2021/12/15 03:37:23;;;;;;;10.05;9.05;;;21.90;76.10;;;;;;6194693;28;89418;-61
2021/12/15 03:40:36;;;;;;;9.93;8.93;;;21.80;76.10;;;;;;6194690;28;89016;-61
2021/12/15 03:43:39;;;;;;;9.95;8.93;;;21.90;76.10;;;;;;6201852;28;89336;-60
2021/12/15 03:46:41;;;;;;;10.57;9.57;;;21.90;76.10;;;;;;6197539;28;89523;-61
2021/12/15 03:49:43;;;;;;;9.73;8.73;;;21.80;76.10;;;;;;6194127;28;89253;-61
2021/12/15 03:52:48;;;;;;;9.05;8.15;;;21.80;76.10;;;;;;6206807;28;89072;-61
2021/12/15 03:55:52;;;;;;;9.27;8.38;;;21.80;76.20;;;;;;6208942;28;88323;-61
2021/12/15 03:58:55;;;;;;;9.55;8.65;;;21.80;76.10;;;;;;6208964;28;89112;-61
2021/12/15 04:01:57;;;;;;;9.55;8.65;;;21.80;76.20;;;;;;6208397;28;88137;-60
2021/12/15 04:05:00;;;;;;;9.02;8.15;;;21.80;76.20;;;;;;6205419;28;90063;-60
2021/12/15 04:08:02;;;;;;;9.05;8.15;;;21.80;76.20;;;;;;6206886;28;87977;-60
2021/12/15 04:11:08;;;;;;;8.75;7.85;;;21.80;76.20;;;;;;6196004;28;89335;-61
2021/12/15 04:14:18;;;;;;;9.23;8.32;;;21.80;76.10;;;;;;6207679;28;89075;-60
2021/12/15 04:17:31;;;;;;;9.00;8.05;;;21.80;76.10;;;;;;6207112;28;87303;-61
2021/12/15 04:20:35;;;;;;;8.85;8.05;;;21.80;76.10;;;;;;6205656;28;87955;-60
2021/12/15 04:23:38;;;;;;;8.75;7.93;;;21.80;76.10;;;;;;6206777;28;89035;-60
2021/12/15 04:26:43;;;;;;;8.48;7.68;;;21.80;76.20;;;;;;6194230;28;88722;-61
2021/12/15 04:29:46;;;;;;;9.00;8.07;;;21.80;76.20;;;;;;6207502;28;89179;-61
2021/12/15 04:32:49;;;;;;;8.77;7.78;;;21.80;76.20;;;;;;6192512;28;89300;-61
2021/12/15 04:35:54;;;;;;;8.65;7.78;;;21.80;76.30;;;;;;6204353;28;90020;-60
2021/12/15 04:38:57;;;;;;;8.35;7.55;;;21.80;76.40;;;;;;6201374;28;89208;-60
2021/12/15 04:42:01;;;;;;;8.35;7.55;;;21.80;76.40;;;;;;6199978;28;89120;-60
2021/12/15 04:45:03;;;;;;;7.97;7.18;;;21.80;76.10;;;;;;6207819;28;89372;-60
2021/12/15 04:48:06;;;;;;;7.57;6.80;;;21.70;75.90;;;;;;6207680;28;89102;-60
2021/12/15 04:51:08;;;;;;;8.23;7.40;;;21.80;76.00;;;;;;6204664;28;89131;-61
2021/12/15 04:54:11;;;;;;;8.18;7.38;;;21.80;75.90;;;;;;6206111;28;89225;-61
2021/12/15 04:57:17;;;;;;;8.18;7.30;;;21.80;75.90;;;;;;6208835;28;88625;-61
2021/12/15 05:00:29;;;;;;;7.50;6.80;;;21.70;75.90;;;;;;6206192;28;89084;-61
2021/12/15 05:03:31;;;;;;;7.75;6.95;;;21.80;76.00;;;;;;6193678;28;89055;-61
2021/12/15 05:06:33;;;;;;;7.80;6.65;;;21.80;76.00;;;;;;6204690;28;90075;-61
2021/12/15 05:09:35;;;;;;;7.82;6.85;;;21.80;76.10;;;;;;6206827;28;89479;-61
2021/12/15 05:12:39;;;;;;;7.60;6.85;;;21.80;75.90;;;;;;6200998;28;89530;-61
2021/12/15 05:15:41;;;;;;;7.38;6.68;;;21.80;75.90;;;;;;6206557;28;89113;-60
2021/12/15 05:18:43;;;;;;;7.15;6.43;;;21.80;75.90;;;;;;6206325;28;89153;-61
2021/12/15 05:21:46;;;;;;;7.18;6.47;;;21.80;75.90;;;;;;6200749;28;89025;-60
2021/12/15 05:24:48;;;;;;;7.25;6.55;;;21.80;75.80;;;;;;6200185;28;89031;-61
2021/12/15 05:27:51;;;;;;;7.05;6.35;;;21.80;75.80;;;;;;6205319;28;88555;-60
2021/12/15 05:30:55;;;;;;;6.65;6.05;;;21.90;75.90;;;;;;6210611;28;89049;-60
2021/12/15 05:33:57;;;;;;;6.55;5.95;;;21.80;75.90;;;;;;6198325;28;89558;-61
2021/12/15 05:37:00;;;;;;;6.40;5.80;;;21.80;75.90;;;;;;6205334;28;88919;-60
2021/12/15 05:40:02;;;;;;;6.35;5.75;;;21.80;75.90;;;;;;6205613;28;89128;-61
2021/12/15 05:43:06;;;;;;;6.20;5.60;;;21.80;76.00;;;;;;6203774;28;89154;-61
2021/12/15 05:46:08;;;;;;;6.65;6.05;;;21.80;75.90;;;;;;6208801;28;89004;-61
2021/12/15 05:49:10;;;;;;;5.70;5.20;;;21.80;76.10;;;;;;6208587;28;89192;-61
2021/12/15 05:52:13;;;;;;;6.32;5.72;;;21.80;77.20;;;;;;6208048;28;89483;-61
2021/12/15 05:55:17;;;;;;;6.45;5.53;;;21.80;76.30;;;;;;6211101;28;89023;-60
2021/12/15 05:58:20;;;;;;;5.63;5.13;;;21.80;76.20;;;;;;6209081;28;88402;-61
2021/12/15 06:01:22;;;;;;;6.00;5.40;;;21.80;76.20;;;;;;6207840;28;89152;-60
2021/12/15 06:04:24;;;;;;;6.85;5.40;;;21.80;76.30;;;;;;6205795;28;89567;-61
2021/12/15 06:07:26;;;;;;;6.80;5.65;;;21.80;76.30;;;;;;6185262;28;90367;-61
2021/12/15 06:10:30;;;;;;;6.50;5.30;;;21.80;76.20;;;;;;6185684;28;89070;-60
2021/12/15 06:13:33;;;;;;;6.00;4.93;;;21.80;76.20;;;;;;6197266;28;89211;-61
2021/12/15 06:16:36;;;;;;;5.88;5.22;;;21.80;76.20;;;;;;6206665;28;89044;-60
2021/12/15 06:19:39;;;;;;;5.60;5.10;;;21.80;76.20;;;;;;6208988;28;89387;-61
2021/12/15 06:22:44;;;;;;;5.20;4.70;;;21.80;76.20;;;;;;6208980;28;88018;-61
2021/12/15 06:25:48;;;;;;;5.70;5.10;;;21.80;76.20;;;;;;6207969;28;89311;-61
2021/12/15 06:28:52;;;;;;;5.30;4.80;;;21.80;76.20;;;;;;6209441;28;88419;-60
2021/12/15 06:31:54;;;;;;;6.25;5.22;;;21.90;76.40;;;;;;6207208;28;88935;-61
2021/12/15 06:34:56;;;;;;;5.93;5.15;;;21.90;76.30;;;;;;6198527;28;89053;-60
2021/12/15 06:37:58;;;;;;;5.80;5.00;;;21.90;76.40;;;;;;6194028;28;90053;-61
2021/12/15 06:41:01;;;;;;;5.35;4.78;;;21.90;76.40;;;;;;6193790;28;89151;-61
2021/12/15 06:44:05;;;;;;;5.30;4.40;;;21.90;76.40;;;;;;6209443;28;88183;-61
2021/12/15 06:57:14;;;;;;;5.10;4.60;;;21.90;76.40;;;;;;6210164;28;87973;-61
2021/12/15 06:58:11;;;;;;;4.90;4.50;;;22.00;76.30;;;;;;6199913;28;87297;-61
2021/12/15 07:01:02;;;;;;;4.47;4.07;;;21.90;76.20;;;;;;6210377;28;87886;-61
2021/12/15 07:04:04;;;;;;;4.85;4.35;;;22.00;76.20;;;;;;6208227;28;89197;-61
2021/12/15 07:07:06;;;;;;;4.95;4.45;;;22.00;76.20;;;;;;6206836;28;89094;-61
2021/12/15 07:10:12;;;;;;;4.80;4.22;;;22.00;76.10;;;;;;6199988;28;90008;-61
2021/12/15 07:13:14;;;;;;;4.30;3.90;;;22.00;76.10;;;;;;6201870;28;89398;-60
2021/12/15 07:16:19;;;;;;;4.25;3.85;;;22.10;76.10;;;;;;6203336;28;89403;-61
2021/12/15 07:19:32;;;;;;;4.78;4.30;;;22.10;76.00;;;;;;6201571;28;89250;-61
2021/12/15 07:22:43;;;;;;;4.18;3.78;;;22.10;76.00;;;;;;6188772;28;89108;-60
2021/12/15 07:25:47;;;;;;;4.00;3.60;;;22.10;75.90;;;;;;6206759;28;89300;-60
2021/12/15 07:28:49;;;;;;;4.32;3.92;;;22.10;75.90;;;;;;6208034;28;87986;-60
2021/12/15 07:31:52;;;;;;;4.35;3.95;;;22.20;75.90;;;;;;6207256;28;87168;-61
2021/12/15 07:34:54;;;;;;;4.50;4.10;;;22.20;75.90;;;;;;6206558;28;89086;-61
2021/12/15 07:37:57;;;;;;;4.18;3.65;;;22.20;75.80;;;;;;6194757;28;89069;-61
2021/12/15 07:40:59;;;;;;;4.05;3.50;;;22.20;75.80;;;;;;6182894;28;89978;-61
2021/12/15 07:44:02;;;;;;;4.28;3.88;;;22.20;75.70;;;;;;6206562;28;89340;-61
2021/12/15 07:47:07;;;;;;;4.22;3.83;;;22.20;75.70;;;;;;6198804;28;88198;-61
2021/12/15 07:50:10;;;;;;;3.95;3.55;;;22.20;75.70;;;;;;6206997;28;89097;-61
2021/12/15 07:53:12;;;;;;;4.28;3.50;;;22.30;75.70;;;;;;6195817;28;89330;-61
2021/12/15 07:56:16;;;;;;;3.70;3.40;;;22.20;75.70;;;;;;6199318;28;89011;-61
2021/12/15 07:59:18;;;;;;;3.40;3.10;;;22.20;75.70;;;;;;6197108;28;89094;-61
2021/12/15 08:02:22;;;;;;;3.55;3.25;;;22.20;75.60;;;;;;6188435;28;88379;-61
2021/12/15 08:05:25;;;;;;;3.65;3.35;;;22.30;75.70;;;;;;6206211;28;87952;-61
2021/12/15 08:08:27;;;;;;;3.85;3.42;;;22.30;75.60;;;;;;6193633;28;89032;-61
2021/12/15 08:11:29;;;;;;;3.78;3.20;;;22.30;75.60;;;;;;6202738;28;90110;-61
2021/12/15 08:14:31;;;;;;;4.00;3.60;;;22.30;75.50;;;;;;6186706;28;89066;-60
2021/12/15 08:17:34;;;;;;;3.65;3.35;;;22.20;75.50;;;;;;6193397;28;87961;-61
2021/12/15 08:20:37;;;;;;;3.22;2.92;;;22.30;75.50;;;;;;6207146;28;89018;-61
2021/12/15 08:23:39;;;;;;;3.63;3.25;;;22.30;75.50;;;;;;6194881;28;89156;-61
2021/12/15 08:26:42;;;;;;;3.40;3.10;;;22.30;75.40;;;;;;6195592;28;89084;-61
2021/12/15 08:29:44;;;;;;;3.55;3.00;;;22.30;75.40;;;;;;6183981;28;89356;-60
2021/12/15 08:32:49;;;;;;;3.72;3.25;;;22.30;75.40;;;;;;6205548;28;88621;-61
2021/12/15 08:35:56;;;;;;;3.53;3.20;;;22.30;75.40;;;;;;6207015;28;89368;-61
2021/12/15 08:38:58;;;;;;;4.13;3.20;;;22.30;75.30;;;;;;6204868;28;89297;-61
2021/12/15 08:42:00;;;;;;;3.00;2.70;;;22.30;75.40;;;;;;6189434;28;90029;-61
2021/12/15 08:45:02;;;;;;;3.08;2.78;;;22.30;75.30;;;;;;6186200;28;89520;-61
2021/12/15 08:48:08;;;;;;;3.30;3.00;;;22.30;75.30;;;;;;6206007;28;89256;-60
2021/12/15 08:51:13;;;;;;;3.20;2.90;;;22.40;75.40;;;;;;6193679;28;89025;-61
2021/12/15 08:54:18;;;;;;;3.03;2.72;;;22.40;75.20;;;;;;6193539;28;89369;-61
2021/12/15 08:57:21;;;;;;;3.30;3.00;;;22.40;75.20;;;;;;6192401;28;89464;-61
2021/12/15 09:00:25;;;;;;;3.28;2.97;;;22.40;75.20;;;;;;6207643;28;87960;-61
2021/12/15 09:03:30;;;;;;;2.80;2.60;;;22.40;75.10;;;;;;6192813;28;89891;-61
2021/12/15 09:06:33;;;;;;;3.05;2.75;;;22.40;75.10;;;;;;6183051;28;89055;-61
2021/12/15 09:09:36;;;;;;;3.10;2.80;;;22.40;75.00;;;;;;6198528;28;87579;-61
2021/12/15 09:12:38;;;;;;;2.80;2.60;;;22.40;75.00;;;;;;6202512;28;90239;-61
2021/12/15 09:15:59;;;;;;;2.92;2.63;;;22.40;75.00;;;;;;6194782;28;88769;-60
2021/12/15 09:19:03;;;;;;;2.83;2.58;;;22.40;75.00;;;;;;6194395;28;88206;-61
2021/12/15 09:22:06;;;;;;;2.90;2.67;;;22.40;75.00;;;;;;6206689;28;88099;-61
2021/12/15 09:25:10;;;;;;;2.60;2.40;;;22.40;75.00;;;;;;6192460;28;89345;-61
2021/12/15 09:28:12;;;;;;;2.50;2.30;;;22.40;75.00;;;;;;6206677;28;89172;-61
2021/12/15 09:31:16;;;;;;;2.63;2.42;;;22.40;75.00;;;;;;6206453;28;89004;-60
2021/12/15 09:34:19;;;;;;;2.75;2.53;;;22.50;75.90;;;;;;6197985;28;88595;-61
2021/12/15 09:37:21;;;;;;;2.60;2.40;;;22.40;74.90;;;;;;6201720;28;89634;-61
2021/12/15 09:40:24;;;;;;;2.60;2.40;;;22.40;74.90;;;;;;6200285;28;89385;-61
2021/12/15 09:43:28;;;;;;;2.70;2.40;;;22.50;74.90;;;;;;6198332;28;90020;-61
2021/12/15 09:46:37;;;;;;;2.58;2.38;;;22.50;74.90;;;;;;6205331;28;89068;-60
2021/12/15 10:03:31;;;;;;;2.20;2.00;;;22.40;74.80;;;;;;6187329;28;88182;-61
2021/12/15 10:06:48;;;;;;;2.33;2.10;;;22.50;74.80;;;;;;6191799;28;88320;-61
2021/12/15 10:20:03;;;;;;;2.22;2.00;;;22.50;74.80;;;;;;6208447;28;87300;-61
2021/12/15 10:23:08;;;;;;;2.25;2.05;;;22.50;74.70;;;;;;6200842;28;88763;-61
2021/12/15 10:26:10;;;;;;;2.25;2.05;;;22.50;74.70;;;;;;6198252;28;89200;-61
2021/12/15 10:29:12;;;;;;;2.40;2.20;;;22.50;74.70;;;;;;6202315;28;88017;-60
2021/12/15 10:32:15;;;;;;;2.30;2.10;;;22.50;74.70;;;;;;6209324;28;89184;-61
2021/12/15 10:35:20;;;;;;;2.35;2.15;;;22.50;74.70;;;;;;6196728;28;89301;-61
2021/12/15 10:38:28;;;;;;;2.25;2.05;;;22.50;74.60;;;;;;6195153;28;88284;-61
2021/12/15 10:41:32;;;;;;;2.15;1.98;;;22.60;74.70;;;;;;6197643;28;87890;-61
2021/12/15 10:44:34;;;;;;;2.20;2.00;;;22.60;74.70;;;;;;6206888;28;88940;-61
2021/12/15 10:47:42;;;;;;;2.20;2.00;;;22.50;74.60;;;;;;6197919;28;90009;-61
2021/12/15 10:50:44;;;;;;;2.25;2.05;;;22.50;74.50;;;;;;6197671;28;90376;-61
2021/12/15 10:53:49;;;;;;;2.25;2.05;;;22.60;74.60;;;;;;6208095;28;89110;-61
2021/12/15 10:56:55;;;;;;;1.88;1.77;;;22.50;74.50;;;;;;6195098;28;88773;-61
2021/12/15 10:59:59;;;;;;;2.17;2.03;;;22.60;74.60;;;;;;6199400;28;87982;-61
2021/12/15 11:03:05;;;;;;;2.00;1.90;;;22.60;74.50;;;;;;6189482;28;89341;-60
2021/12/15 11:06:20;;;;;;;2.92;2.20;;;22.60;74.50;;;;;;6208380;28;89375;-61
2021/12/15 11:09:24;;;;;;;2.30;2.10;;;22.60;74.50;;;;;;6208872;28;88308;-61
2021/12/15 11:12:31;;;;;;;2.30;2.10;;;22.60;74.50;;;;;;6209739;28;89061;-61
2021/12/15 11:15:39;;;;;;;2.20;2.00;;;22.60;74.50;;;;;;6196677;28;89317;-61
2021/12/15 11:18:41;;;;;;;2.13;1.92;;;22.60;74.50;;;;;;6194596;28;90020;-61
2021/12/15 11:21:43;;;;;;;1.80;1.70;;;22.60;74.50;;;;;;6196657;28;89255;-61
2021/12/15 11:24:47;;;;;;;2.00;1.80;;;22.60;74.50;;;;;;6195702;28;89661;-61
2021/12/15 11:27:51;;;;;;;2.13;1.92;;;22.60;74.50;;;;;;6197240;28;89133;-60
2021/12/15 11:30:58;;;;;;;2.13;1.92;;;22.60;74.50;;;;;;6203282;28;89404;-61
2021/12/15 11:34:02;;;;;;;1.92;1.80;;;22.60;74.50;;;;;;6201519;28;89100;-61
2021/12/15 11:37:04;;;;;;;1.90;1.80;;;22.60;74.50;;;;;;6196601;28;89106;-61
2021/12/15 11:40:09;;;;;;;1.80;1.70;;;22.60;74.40;;;;;;6198824;28;88751;-61
2021/12/15 11:43:27;;;;;;;1.90;1.70;;;22.60;74.40;;;;;;6195733;28;89077;-61
2021/12/15 11:46:31;;;;;;;2.10;1.90;;;22.60;74.40;;;;;;6206403;28;89037;-60
2021/12/15 11:49:35;;;;;;;1.90;1.80;;;22.60;75.30;;;;;;6195642;28;90223;-61
2021/12/15 11:52:42;;;;;;;1.90;1.80;;;22.60;74.40;;;;;;6208829;28;88998;-61
2021/12/15 11:55:46;;;;;;;1.83;1.73;;;22.60;74.40;;;;;;6194697;28;89529;-63
2021/12/15 11:58:51;;;;;;;2.15;1.95;;;22.60;74.40;;;;;;6196021;28;89308;-63
2021/12/15 12:02:04;;;;;;;1.85;1.75;;;22.60;74.30;;;;;;6207452;28;89656;-63
2021/12/15 12:05:08;;;;;;;2.00;1.83;;;22.70;74.40;;;;;;6204421;28;88975;-63
2021/12/15 12:08:12;;;;;;;2.15;1.95;;;22.60;74.20;;;;;;6209402;28;87978;-63
2021/12/15 12:11:16;;;;;;;1.73;1.63;;;22.70;74.40;;;;;;6203305;28;88328;-63
2021/12/15 12:14:36;;;;;;;1.95;1.85;;;22.60;74.30;;;;;;6196990;28;89065;-63
2021/12/15 12:17:40;;;;;;;2.10;1.90;;;22.70;74.30;;;;;;6192287;28;89025;-63
2021/12/15 12:20:44;;;;;;;1.73;1.63;;;22.70;74.30;;;;;;6196745;28;90114;-63
2021/12/15 12:23:49;;;;;;;1.80;1.70;;;22.70;74.20;;;;;;6195858;28;89001;-63
2021/12/15 12:26:53;;;;;;;1.80;1.70;;;22.70;74.20;;;;;;6206595;28;89342;-63
2021/12/15 12:29:58;;;;;;;1.77;1.67;;;22.60;74.20;;;;;;6182991;28;89347;-63
2021/12/15 12:33:00;;;;;;;1.70;1.60;;;22.70;74.30;;;;;;6183240;28;89210;-63
2021/12/15 12:36:06;;;;;;;1.88;1.70;;;22.70;74.30;;;;;;6189640;28;88001;-63
2021/12/15 12:39:10;;;;;;;1.50;1.40;;;22.70;74.30;;;;;;6192618;28;89078;-61
2021/12/15 12:45:42;;;;;;;1.70;1.60;;;22.70;74.30;;;;;;6269549;27;80323;-60
2021/12/15 12:49:17;;;;;;;1.70;1.60;;;22.70;74.20;;;;;;6259013;27;82478;-61
2021/12/15 12:59:28;;;;;;;2.03;1.83;;;22.60;74.20;;;;;;6245010;27;80424;-63
2021/12/15 13:02:41;;;;;;;1.60;1.50;;;22.70;74.20;;;;;;6245884;27;82635;-62
2021/12/15 13:05:46;;;;;;;1.60;1.50;;;22.70;74.20;;;;;;6244305;27;82458;-63
2021/12/15 13:08:54;;;;;;;1.65;1.55;;;22.70;74.20;;;;;;6255372;27;82582;-64
2021/12/15 13:11:57;;;;;;;1.73;1.63;;;22.70;74.20;;;;;;6255034;27;82244;-63
2021/12/15 13:15:00;;;;;;;1.58;1.48;;;22.70;74.20;;;;;;6263975;27;82248;-63
2021/12/15 13:18:11;;;;;;;2.10;1.55;;;22.70;74.20;;;;;;6249013;27;82350;-63
2021/12/15 13:21:15;;;;;;;2.05;1.50;;;22.70;74.20;;;;;;6255307;27;82548;-62
2021/12/15 13:31:35;;;;;;;1.48;1.38;;;22.70;74.10;;;;;;6230543;28;81197;-63
2021/12/15 13:34:42;;;;;;;1.55;1.45;;;22.70;74.10;;;;;;6256050;27;81218;-63
2021/12/15 13:37:54;;;;;;;1.60;1.50;;;22.70;74.00;;;;;;6256967;27;82288;-63
2021/12/15 13:41:22;;;;;;;1.70;1.60;;;22.70;74.00;;;;;;6241503;27;81266;-63
2021/12/15 13:44:30;;;;;;;1.85;1.70;;;22.70;74.00;;;;;;6244360;27;82344;-63
2021/12/15 13:47:32;;;;;;;1.75;1.65;;;22.70;74.00;;;;;;6254431;27;84839;-63
2021/12/15 13:50:35;;;;;;;1.50;1.40;;;22.70;74.00;;;;;;6255814;27;82341;-63
2021/12/15 13:53:37;;;;;;;1.63;1.52;;;22.70;74.00;;;;;;6257936;27;81555;-63
2021/12/15 13:56:47;;;;;;;1.70;1.60;;;22.70;74.00;;;;;;6237342;28;82269;-63
2021/12/15 13:59:58;;;;;;;1.90;1.70;;;22.70;74.00;;;;;;6238635;28;81366;-63
2021/12/15 14:03:13;;;;;;;1.77;1.67;;;22.70;74.00;;;;;;6236141;28;82787;-63
2021/12/15 14:06:18;;;;;;;1.90;1.80;;;22.70;74.00;;;;;;6234827;28;82205;-63
2021/12/15 14:09:32;;;;;;;1.63;1.52;;;22.70;74.00;;;;;;6237825;28;82832;-63
2021/12/15 14:12:56;;;;;;;1.70;1.60;;;22.70;74.00;;;;;;6238809;28;82266;-63
2021/12/15 14:15:58;;;;;;;1.50;1.40;;;22.70;74.10;;;;;;6221178;28;82773;-63
2021/12/15 14:19:03;;;;;;;1.52;1.42;;;22.70;74.00;;;;;;6227969;28;81300;-63
2021/12/15 14:22:09;;;;;;;1.50;1.40;;;22.70;74.00;;;;;;6237582;28;82455;-63
2021/12/15 14:25:11;;;;;;;1.60;1.50;;;22.70;74.00;;;;;;6225855;28;82352;-63
2021/12/15 14:28:16;;;;;;;1.50;1.40;;;22.70;74.00;;;;;;6235124;28;82310;-63
2021/12/15 14:31:23;;;;;;;1.50;1.40;;;22.70;74.00;;;;;;6237305;28;82254;-63
2021/12/15 14:34:28;;;;;;;1.42;1.33;;;22.80;74.00;;;;;;6249846;28;81137;-63
2021/12/15 14:37:32;;;;;;;1.58;1.48;;;22.80;74.00;;;;;;6237160;28;81235;-63
2021/12/15 14:40:34;;;;;;;1.70;1.60;;;22.70;74.00;;;;;;6223958;28;82279;-63
2021/12/15 14:43:36;;;;;;;1.55;1.45;;;22.80;74.00;;;;;;6230444;28;81203;-63
2021/12/15 14:46:41;;;;;;;1.20;1.10;;;22.80;74.00;;;;;;6235139;28;82672;-63
2021/12/15 14:49:46;;;;;;;1.60;1.50;;;22.80;74.10;;;;;;6233095;27;82286;-63
2021/12/15 14:52:53;;;;;;;1.60;1.50;;;22.70;73.90;;;;;;6237992;28;82432;-63
2021/12/15 14:55:55;;;;;;;1.90;1.60;;;22.80;74.00;;;;;;6225511;28;82376;-63
2021/12/15 14:58:57;;;;;;;1.52;1.42;;;22.80;73.90;;;;;;6261320;27;82670;-63
2021/12/15 15:02:05;;;;;;;1.50;1.40;;;22.80;74.00;;;;;;6212955;28;82661;-63
2021/12/15 15:05:11;;;;;;;2.35;1.60;;;22.80;73.90;;;;;;6235265;28;82447;-63
2021/12/15 15:08:17;;;;;;;1.60;1.50;;;22.80;73.90;;;;;;6235690;28;81418;-63
2021/12/15 15:11:24;;;;;;;1.73;1.50;;;22.80;74.00;;;;;;6237784;28;82284;-63
2021/12/15 15:14:43;;;;;;;1.55;1.40;;;22.80;73.90;;;;;;6237614;28;82357;-63
2021/12/15 15:17:50;;;;;;;1.50;1.40;;;22.80;74.00;;;;;;6238043;28;82566;-63
2021/12/15 15:20:55;;;;;;;1.60;1.50;;;22.80;73.90;;;;;;6233099;28;82403;-63
2021/12/15 15:23:58;;;;;;;1.70;1.60;;;22.80;74.00;;;;;;6222698;28;82491;-63
2021/12/15 15:27:04;;;;;;;1.70;1.58;;;22.80;73.80;;;;;;6237129;28;82353;-63
2021/12/15 15:30:09;;;;;;;1.70;1.60;;;22.80;73.90;;;;;;6236320;28;81476;-63
2021/12/15 15:33:14;;;;;;;1.58;1.48;;;22.80;73.80;;;;;;6249304;28;84120;-63
2021/12/15 15:36:19;;;;;;;1.45;1.35;;;22.80;73.90;;;;;;6234521;27;82569;-63
2021/12/15 15:39:22;;;;;;;1.50;1.40;;;22.80;73.80;;;;;;6237116;28;81210;-63
2021/12/15 15:46:05;;;;;;;1.70;1.60;;;22.80;73.80;;;;;;6211177;28;80548;-63
2021/12/15 15:49:10;;;;;;;1.45;1.35;;;22.80;73.80;;;;;;6235824;28;82342;-63
2021/12/15 15:52:12;;;;;;;1.67;1.58;;;22.80;73.80;;;;;;6237949;28;82329;-63
2021/12/15 15:55:16;;;;;;;1.40;1.30;;;22.80;73.80;;;;;;6222632;28;82255;-63
2021/12/15 15:58:20;;;;;;;1.60;1.50;;;22.80;73.80;;;;;;6235926;28;82832;-63
2021/12/15 16:01:23;;;;;;;1.63;1.50;;;22.80;73.90;;;;;;6236656;28;82355;-63
2021/12/15 16:04:27;;;;;;;1.50;1.40;;;22.80;73.80;;;;;;6235021;28;81200;-63
2021/12/15 16:07:29;;;;;;;1.42;1.33;;;22.80;73.80;;;;;;6211270;28;81296;-63
2021/12/15 16:10:33;;;;;;;1.33;1.23;;;22.90;73.80;;;;;;6235906;28;82297;-63
2021/12/15 16:13:41;;;;;;;1.40;1.30;;;22.90;73.90;;;;;;6236572;28;81225;-63
2021/12/15 16:16:50;;;;;;;1.52;1.42;;;22.80;73.80;;;;;;6235410;28;81583;-63
2021/12/15 16:20:12;;;;;;;1.60;1.50;;;22.80;73.80;;;;;;6222211;28;82318;-63
2021/12/15 16:23:22;;;;;;;1.55;1.45;;;22.80;73.80;;;;;;6244506;28;82393;-62
2021/12/15 16:26:28;;;;;;;1.60;1.50;;;22.80;73.80;;;;;;6236334;27;81488;-63
2021/12/15 16:29:30;;;;;;;1.50;1.40;;;22.90;73.80;;;;;;6212802;28;82603;-63
2021/12/15 16:32:38;;;;;;;1.40;1.30;;;22.90;73.80;;;;;;6232033;28;82284;-63
2021/12/15 16:35:42;;;;;;;1.50;1.40;;;22.80;73.70;;;;;;6223417;28;82362;-63
2021/12/15 16:38:47;;;;;;;1.70;1.60;;;22.90;73.80;;;;;;6235237;28;82253;-63
2021/12/15 16:41:53;;;;;;;1.63;1.52;;;22.90;73.80;;;;;;6231477;28;81196;-63
2021/12/15 16:44:57;;;;;;;1.80;1.70;;;22.90;73.80;;;;;;6226007;28;82242;-62
2021/12/15 16:47:59;;;;;;;1.42;1.33;;;22.90;73.70;;;;;;6235275;28;81220;-62
2021/12/15 16:51:05;;;;;;;1.70;1.60;;;22.90;73.80;;;;;;6220752;28;82307;-63
2021/12/15 16:54:10;;;;;;;1.60;1.50;;;22.90;73.70;;;;;;6221422;28;82269;-63
2021/12/15 16:57:17;;;;;;;1.45;1.35;;;22.80;73.70;;;;;;6222781;28;81172;-63
2021/12/15 17:00:25;;;;;;;1.42;1.33;;;22.90;73.70;;;;;;6222724;28;82556;-63
2021/12/15 17:03:34;;;;;;;1.48;1.38;;;22.90;73.70;;;;;;6234652;28;82566;-62
2021/12/15 17:06:37;;;;;;;1.73;1.55;;;22.90;73.70;;;;;;6229449;28;82177;-63
2021/12/15 17:09:42;;;;;;;1.77;1.67;;;22.90;73.70;;;;;;6230359;28;82345;-63
2021/12/15 17:12:48;;;;;;;2.65;1.42;;;22.90;73.80;;;;;;6218764;28;81245;-63